Time;durP1;ratioP1;P1;durP2;ratioP2;P2;SDS_P1;SDS_P2;PMS_P1;PMS_P2;Temp;Humidity;BMP_temperature;BMP_pressure;BME280_temperature;BME280_humidity;BME280_pressure;Samples;Min_cycle;Max_cycle;Signal;HPM_P1;HPM_P2
2022/04/18 00:00:59;;;;;;;;;;;;;;;-0.72;67.60;101104.58;84623;1333;25341;-71
2022/04/18 00:03:07;;;;;;;;;;;;;;;-0.76;67.63;101105.19;83924;1330;1003932;-80
2022/04/18 00:05:17;;;;;;;;;;;;;;;-0.80;67.69;101106.65;84586;1334;22653;-81
2022/04/18 00:07:25;;;;;;;;;;;;;;;-0.84;67.47;101104.52;84669;1328;22596;-81
2022/04/18 00:09:33;;;;;;;;;;;;;;;-0.88;67.83;101103.05;84648;1330;22659;-79
2022/04/18 00:11:37;;;;;;;;;;;;;;;-0.92;67.69;101105.73;84629;1330;22616;-80
2022/04/18 00:13:42;;;;;;;;;;;;;;;-0.96;68.13;101103.57;84654;1330;25410;-80
2022/04/18 00:15:49;;;;;;;;;;;;;;;-1.02;68.39;101101.22;84583;1335;24412;-81
2022/04/18 00:17:56;;;;;;;;;;;;;;;-1.08;68.34;101098.02;83935;1333;1002502;-80
2022/04/18 00:20:01;;;;;;;;;;;;;;;-1.12;68.59;101096.40;84638;1330;22581;-80
2022/04/18 00:22:06;;;;;;;;;;;;;;;-1.17;68.65;101092.20;83948;1331;1003057;-80
2022/04/18 00:24:13;;;;;;;;;;;;;;;-1.21;68.94;101095.86;84488;1333;23029;-71
2022/04/18 00:26:19;;;;;;;;;;;;;;;-1.25;69.10;101093.89;84493;1335;22724;-71
2022/04/18 00:28:27;;;;;;;;;;;;;;;-1.28;68.98;101092.13;84638;1330;22578;-71
2022/04/18 00:30:34;;;;;;;;;;;;;;;-1.31;68.94;101090.52;83946;1330;1003524;-70
2022/04/18 00:32:40;;;;;;;;;;;;;;;-1.33;68.89;101091.66;84636;1331;23818;-70
2022/04/18 00:34:46;;;;;;;;;;;;;;;-1.35;68.96;101088.88;84586;1335;25322;-71
2022/04/18 00:36:52;;;;;;;;;;;;;;;-1.37;69.14;101093.48;84606;1331;22569;-69
2022/04/18 00:38:59;;;;;;;;;;;;;;;-1.37;69.17;101095.86;83925;1333;1003158;-73
2022/04/18 00:41:10;;;;;;;;;;;;;;;-1.37;69.11;101090.72;84650;1333;24346;-70
2022/04/18 00:43:39;;;;;;;;;;;;;;;-1.39;69.15;101090.32;84620;1333;22653;-70
2022/04/18 00:45:47;;;;;;;;;;;;;;;-1.42;69.38;101085.30;84591;1335;22851;-70
2022/04/18 00:47:52;;;;;;;;;;;;;;;-1.43;69.31;101085.80;84565;1332;22571;-70
2022/04/18 00:50:02;;;;;;;;;;;;;;;-1.41;69.21;101086.01;84678;1329;22568;-80
2022/04/18 00:52:08;;;;;;;;;;;;;;;-1.42;69.28;101080.52;83828;1335;1003043;-80
2022/04/18 00:54:16;;;;;;;;;;;;;;;-1.43;69.42;101078.77;84657;1333;22578;-80
2022/04/18 00:56:24;;;;;;;;;;;;;;;-1.43;69.37;101072.95;83882;1335;1015936;-81
2022/04/18 00:58:29;;;;;;;;;;;;;;;-1.45;69.39;101070.86;84626;1333;22616;-80
2022/04/18 01:00:34;;;;;;;;;;;;;;;-1.47;69.60;101070.48;84635;1335;22605;-69
2022/04/18 01:02:42;;;;;;;;;;;;;;;-1.48;69.53;101074.37;84636;1331;22569;-71
2022/04/18 01:04:57;;;;;;;;;;;;;;;-1.48;69.86;101070.11;84600;1335;22582;-71
2022/04/18 01:07:06;;;;;;;;;;;;;;;-1.49;69.72;101069.06;84603;1333;22565;-71
2022/04/18 01:09:14;;;;;;;;;;;;;;;-1.51;69.95;101073.82;84616;1334;22669;-71
2022/04/18 01:11:22;;;;;;;;;;;;;;;-1.49;69.88;101068.04;84565;1334;24255;-70
2022/04/18 01:13:29;;;;;;;;;;;;;;;-1.44;69.62;101062.50;83930;1330;1003481;-71
2022/04/18 01:15:34;;;;;;;;;;;;;;;-1.35;69.29;101065.61;84514;1334;22795;-80
2022/04/18 01:17:42;;;;;;;;;;;;;;;-1.29;69.21;101066.09;84633;1333;22579;-80
2022/04/18 01:19:50;;;;;;;;;;;;;;;-1.24;69.26;101063.79;83951;1333;1003539;-80
2022/04/18 01:21:58;;;;;;;;;;;;;;;-1.19;68.96;101059.27;84584;1332;22864;-80
2022/04/18 01:28:58;;;;;;;;;;;;;;;-1.14;69.22;101057.33;84643;1330;22578;-79
2022/04/18 01:29:03;;;;;;;;;;;;;;;-1.02;68.97;101054.99;84418;1335;23468;-70
2022/04/18 01:31:09;;;;;;;;;;;;;;;-0.96;68.70;101056.65;84615;1333;23978;-70
2022/04/18 01:33:18;;;;;;;;;;;;;;;-0.91;68.66;101052.80;83949;1333;1003176;-71
2022/04/18 01:35:23;;;;;;;;;;;;;;;-0.87;68.88;101058.90;84608;1335;22605;-71
2022/04/18 01:37:37;;;;;;;;;;;;;;;-0.83;68.93;101049.72;84655;1330;22578;-70
2022/04/18 01:39:42;;;;;;;;;;;;;;;-0.79;68.71;101049.96;84646;1330;24241;-71
2022/04/18 01:41:48;;;;;;;;;;;;;;;-0.76;68.58;101050.54;84592;1334;22604;-70
2022/04/18 01:43:55;;;;;;;;;;;;;;;-0.72;68.36;101046.50;84634;1329;22742;-70
2022/04/18 01:46:01;;;;;;;;;;;;;;;-0.68;67.94;101046.92;84670;1330;22579;-71
2022/04/18 01:48:15;;;;;;;;;;;;;;;-0.63;67.57;101045.65;84685;1332;22569;-70
2022/04/18 01:50:31;;;;;;;;;;;;;;;-0.58;67.29;101042.48;84754;1332;22581;-80
2022/04/18 02:00:24;;;;;;;;;;;;;;;-0.32;65.96;101031.45;84576;1333;23947;-80
2022/04/18 02:02:34;;;;;;;;;;;;;;;-0.27;65.61;101027.58;83959;1333;1003128;-79
2022/04/18 02:04:42;;;;;;;;;;;;;;;-0.21;65.29;101024.42;84621;1329;23050;-70
2022/04/18 02:06:50;;;;;;;;;;;;;;;-0.17;65.22;101025.36;83813;1334;1005914;-70
2022/04/18 02:08:58;;;;;;;;;;;;;;;-0.13;64.89;101022.31;84654;1333;22575;-77
2022/04/18 02:11:05;;;;;;;;;;;;;;;-0.09;64.72;101022.91;84651;1331;22838;-79
2022/04/18 02:21:08;;;;;;;;;;;;;;;0.06;64.68;101015.59;84653;1333;22580;-71
2022/04/18 02:24:17;;;;;;;;;;;;;;;0.09;65.11;101010.48;84603;1335;22834;-80
2022/04/18 02:26:52;;;;;;;;;;;;;;;0.10;65.18;101008.96;84649;1330;22570;-80
2022/04/18 02:29:15;;;;;;;;;;;;;;;0.13;64.91;101007.45;84612;1334;22596;-72
2022/04/18 02:32:47;;;;;;;;;;;;;;;0.13;65.16;101005.23;84653;1330;23980;-70
2022/04/18 02:34:15;;;;;;;;;;;;;;;0.12;65.32;101004.02;84673;1331;22610;-70
2022/04/18 02:36:37;;;;;;;;;;;;;;;0.13;65.18;100998.87;83930;1330;1003265;-71
2022/04/18 02:38:45;;;;;;;;;;;;;;;0.10;65.34;100998.84;84647;1331;22656;-70
2022/04/18 02:40:53;;;;;;;;;;;;;;;0.07;65.57;101002.22;84563;1335;22632;-80
2022/04/18 02:43:13;;;;;;;;;;;;;;;0.04;65.49;101003.54;84643;1333;22572;-80
2022/04/18 02:45:32;;;;;;;;;;;;;;;-0.02;65.61;101004.66;84632;1330;23059;-70
2022/04/18 02:47:47;;;;;;;;;;;;;;;-0.07;65.88;101002.01;84646;1330;22709;-77
2022/04/18 02:49:55;;;;;;;;;;;;;;;-0.11;65.92;100999.04;84713;1330;22579;-78
2022/04/18 02:52:03;;;;;;;;;;;;;;;-0.16;66.05;101002.90;84716;1331;22663;-77
2022/04/18 02:54:16;;;;;;;;;;;;;;;-0.21;65.72;100999.05;84599;1334;22589;-70
2022/04/18 02:56:36;;;;;;;;;;;;;;;-0.26;65.95;101002.56;84717;1331;22595;-78
2022/04/18 02:58:56;;;;;;;;;;;;;;;-0.35;66.02;101000.89;84527;1336;22813;-71
2022/04/18 03:01:21;;;;;;;;;;;;;;;-0.45;66.18;101000.20;84530;1333;22613;-70
2022/04/18 03:04:22;;;;;;;;;;;;;;;-0.52;66.00;100999.05;84725;1325;24276;-77
2022/04/18 03:07:06;;;;;;;;;;;;;;;-0.57;65.98;101002.04;84351;1339;22575;-81
2022/04/18 03:09:25;;;;;;;;;;;;;;;-0.64;66.04;101001.92;84749;1330;22613;-70
2022/04/18 03:11:29;;;;;;;;;;;;;;;-0.67;66.21;100999.30;84690;1330;25362;-70
2022/04/18 03:13:35;;;;;;;;;;;;;;;-0.67;66.01;101005.14;84689;1332;22642;-71
2022/04/18 03:15:40;;;;;;;;;;;;;;;-0.69;66.03;101003.03;84624;1332;25259;-80
2022/04/18 03:17:46;;;;;;;;;;;;;;;-0.71;65.97;101003.86;84689;1332;23948;-80
2022/04/18 03:19:52;;;;;;;;;;;;;;;-0.73;65.92;101001.95;83899;1333;1003148;-80
2022/04/18 03:21:57;;;;;;;;;;;;;;;-0.74;65.80;101000.19;84694;1330;22599;-81
2022/04/18 03:24:02;;;;;;;;;;;;;;;-0.74;65.70;100999.67;84692;1330;23255;-70
2022/04/18 03:26:06;;;;;;;;;;;;;;;-0.75;65.77;100998.98;84591;1333;22599;-70
2022/04/18 03:28:11;;;;;;;;;;;;;;;-0.77;65.87;100997.59;84658;1330;22638;-70
2022/04/18 03:30:20;;;;;;;;;;;;;;;-0.78;66.12;100996.19;84728;1330;22615;-79
2022/04/18 03:40:59;;;;;;;;;;;;;;;-0.88;66.41;100996.86;84669;1330;22573;-79
2022/04/18 03:43:06;;;;;;;;;;;;;;;-0.93;66.38;100999.69;84676;1328;22676;-80
2022/04/18 03:45:12;;;;;;;;;;;;;;;-0.97;66.63;100999.96;84690;1330;22637;-79
2022/04/18 03:47:18;;;;;;;;;;;;;;;-0.99;66.61;100997.86;84668;1330;23920;-79
2022/04/18 03:49:25;;;;;;;;;;;;;;;-1.00;66.74;100994.92;84586;1334;22599;-80
2022/04/18 03:51:30;;;;;;;;;;;;;;;-0.99;66.73;100997.15;84687;1330;22740;-79
2022/04/18 03:53:35;;;;;;;;;;;;;;;-0.99;66.56;101003.50;84677;1332;24099;-79
2022/04/18 03:55:43;;;;;;;;;;;;;;;-1.00;66.65;101000.23;84648;1330;22588;-79
2022/04/18 03:57:52;;;;;;;;;;;;;;;-1.01;66.66;100998.49;84674;1332;22675;-79
2022/04/18 03:59:57;;;;;;;;;;;;;;;-1.01;66.66;100999.02;84614;1333;22569;-80
2022/04/18 04:02:22;;;;;;;;;;;;;;;-0.99;66.64;100996.48;84614;1329;22603;-71
2022/04/18 04:09:01;;;;;;;;;;;;;;;-0.87;66.65;100997.05;84633;1330;22584;-70
2022/04/18 04:11:15;;;;;;;;;;;;;;;-0.81;66.55;100995.29;84624;1330;22576;-71
2022/04/18 04:13:24;;;;;;;;;;;;;;;-0.70;66.58;100993.10;84575;1328;22598;-70
2022/04/18 04:15:30;;;;;;;;;;;;;;;-0.49;66.57;100991.55;84595;1329;22824;-71
2022/04/18 04:17:46;;;;;;;;;;;;;;;-0.13;67.39;100996.42;85548;1313;22599;-71
2022/04/18 04:19:52;;;;;;;;;;;;;;;0.48;67.87;100994.04;83933;1333;1003554;-70
2022/04/18 04:21:57;;;;;;;;;;;;;;;1.14;67.17;100993.11;84579;1334;22595;-80
2022/04/18 04:24:03;;;;;;;;;;;;;;;1.71;65.17;100995.17;84674;1329;22596;-80
2022/04/18 04:26:09;;;;;;;;;;;;;;;2.21;65.55;100995.01;83949;1327;1003216;-80
2022/04/18 04:28:18;;;;;;;;;;;;;;;3.02;65.01;100988.64;84628;1332;22969;-80
2022/04/18 04:30:23;;;;;;;;;;;;;;;4.07;63.73;100988.02;84525;1332;22671;-80
2022/04/18 04:32:29;;;;;;;;;;;;;;;5.12;61.54;100982.63;84627;1329;22620;-71
2022/04/18 04:34:34;;;;;;;;;;;;;;;6.15;59.42;100983.56;84508;1334;22804;-71
2022/04/18 04:36:42;;;;;;;;;;;;;;;7.08;56.38;100981.95;84598;1332;23905;-71
2022/04/18 04:38:50;;;;;;;;;;;;;;;8.08;54.02;100977.73;84575;1334;25301;-71
2022/04/18 04:40:58;;;;;;;;;;;;;;;8.89;50.74;100969.74;84636;1333;22701;-71
2022/04/18 04:43:03;;;;;;;;;;;;;;;9.67;48.81;100974.21;84626;1329;22566;-71
2022/04/18 04:45:09;;;;;;;;;;;;;;;10.35;47.11;100977.52;84563;1331;25428;-72
2022/04/18 04:47:13;;;;;;;;;;;;;;;11.01;45.49;100972.68;84653;1329;24086;-82
2022/04/18 04:49:18;;;;;;;;;;;;;;;11.60;43.48;100971.52;84617;1333;24350;-80
2022/04/18 04:51:26;;;;;;;;;;;;;;;11.99;41.18;100974.61;84606;1331;22584;-81
2022/04/18 05:00:17;;;;;;;;;;;;;;;14.06;36.79;100979.49;84510;1333;22580;-72
2022/04/18 05:13:54;;;;;;;;;;;;;;;14.29;33.48;100977.10;84662;1330;22659;-81
2022/04/18 05:17:06;;;;;;;;;;;;;;;14.14;32.78;100978.60;84657;1332;22571;-82
2022/04/18 05:19:27;;;;;;;;;;;;;;;14.12;33.22;100977.81;84637;1329;22615;-81
2022/04/18 05:21:49;;;;;;;;;;;;;;;14.34;33.19;100982.30;84680;1327;22631;-78
2022/04/18 05:24:30;;;;;;;;;;;;;;;14.85;31.86;100980.58;84613;1329;22592;-81
2022/04/18 05:26:46;;;;;;;;;;;;;;;15.27;31.35;100977.72;84657;1332;23234;-81
2022/04/18 05:28:56;;;;;;;;;;;;;;;15.46;30.63;100976.42;84541;1332;22594;-81
2022/04/18 05:31:06;;;;;;;;;;;;;;;15.84;30.75;100973.35;84599;1333;22602;-81
2022/04/18 05:33:18;;;;;;;;;;;;;;;16.39;29.43;100975.09;84626;1333;22606;-72
2022/04/18 05:35:28;;;;;;;;;;;;;;;16.86;29.34;100973.69;84560;1332;22593;-72
2022/04/18 05:37:41;;;;;;;;;;;;;;;17.25;27.71;100967.99;84570;1332;22603;-72
2022/04/18 05:39:57;;;;;;;;;;;;;;;17.57;27.55;100967.23;84613;1332;22584;-82
2022/04/18 05:42:14;;;;;;;;;;;;;;;17.91;27.18;100964.92;84635;1330;24240;-72
2022/04/18 05:44:28;;;;;;;;;;;;;;;18.44;27.23;100966.14;84589;1333;22573;-81
2022/04/18 05:46:43;;;;;;;;;;;;;;;19.05;25.63;100957.41;84585;1331;24134;-85
2022/04/18 05:48:55;;;;;;;;;;;;;;;19.52;25.06;100952.41;84506;1332;23889;-79
2022/04/18 05:51:32;;;;;;;;;;;;;;;19.55;24.38;100956.04;84522;1334;22814;-73
2022/04/18 05:53:44;;;;;;;;;;;;;;;19.82;24.65;100953.23;84588;1333;25314;-78
2022/04/18 05:56:10;;;;;;;;;;;;;;;20.18;23.75;100954.88;84638;1329;23581;-80
2022/04/18 05:58:40;;;;;;;;;;;;;;;20.35;23.71;100950.98;84488;1335;22625;-73
2022/04/18 06:00:54;;;;;;;;;;;;;;;20.53;23.00;100950.88;84520;1329;24414;-82
2022/04/18 06:06:25;;;;;;;;;;;;;;;20.97;22.50;100953.90;84630;1331;25271;-83
2022/04/18 06:09:18;;;;;;;;;;;;;;;21.06;21.95;100945.30;84566;1332;25313;-79
2022/04/18 06:11:46;;;;;;;;;;;;;;;21.23;22.09;100948.48;84604;1330;24128;-81
2022/04/18 06:14:07;;;;;;;;;;;;;;;21.59;21.70;100944.73;84605;1333;22576;-80
2022/04/18 06:16:20;;;;;;;;;;;;;;;21.96;20.98;100943.22;84649;1327;24313;-80
2022/04/18 06:18:25;;;;;;;;;;;;;;;22.13;20.55;100945.83;84651;1330;26476;-80
2022/04/18 06:20:33;;;;;;;;;;;;;;;22.25;20.67;100947.22;84619;1329;24102;-80
2022/04/18 06:22:43;;;;;;;;;;;;;;;22.55;20.51;100946.29;84646;1330;22642;-72
2022/04/18 06:24:53;;;;;;;;;;;;;;;22.88;19.80;100949.48;84522;1333;22643;-72
2022/04/18 06:27:12;;;;;;;;;;;;;;;23.19;19.50;100941.68;84561;1332;24067;-73
2022/04/18 06:29:23;;;;;;;;;;;;;;;23.48;19.40;100940.70;84586;1334;23114;-73
2022/04/18 06:31:34;;;;;;;;;;;;;;;23.88;19.14;100945.54;84624;1330;22594;-81
2022/04/18 06:34:04;;;;;;;;;;;;;;;24.07;18.31;100942.29;84614;1330;22634;-78
2022/04/18 06:36:36;;;;;;;;;;;;;;;24.10;17.70;100942.45;84595;1331;22881;-71
2022/04/18 06:38:43;;;;;;;;;;;;;;;24.03;17.29;100941.77;84621;1330;22639;-73
2022/04/18 06:40:56;;;;;;;;;;;;;;;24.01;17.43;100943.23;84602;1332;22573;-73
2022/04/18 06:43:09;;;;;;;;;;;;;;;24.12;17.80;100942.20;84628;1331;24066;-74
2022/04/18 06:45:22;;;;;;;;;;;;;;;24.15;17.56;100943.27;84492;1332;22615;-71
2022/04/18 06:47:34;;;;;;;;;;;;;;;24.39;17.63;100944.17;84608;1330;22861;-80
2022/04/18 06:49:43;;;;;;;;;;;;;;;24.45;16.99;100942.29;84611;1332;22582;-78
2022/04/18 06:51:55;;;;;;;;;;;;;;;24.41;16.74;100941.33;84632;1331;22708;-80
2022/04/18 06:54:00;;;;;;;;;;;;;;;24.42;17.03;100943.75;84625;1330;22570;-80
2022/04/18 06:58:35;;;;;;;;;;;;;;;24.83;16.05;100945.04;84626;1330;24060;-73
2022/04/18 07:00:43;;;;;;;;;;;;;;;25.05;16.48;100942.11;84588;1330;25302;-74
2022/04/18 07:02:52;;;;;;;;;;;;;;;25.36;15.86;100937.18;84608;1331;22632;-80
2022/04/18 07:04:58;;;;;;;;;;;;;;;25.55;15.85;100940.64;84599;1330;22601;-80
2022/04/18 07:07:08;;;;;;;;;;;;;;;25.68;15.32;100940.33;84636;1329;22593;-81
2022/04/18 07:09:21;;;;;;;;;;;;;;;25.64;15.32;100941.42;84622;1330;22593;-79
2022/04/18 07:11:40;;;;;;;;;;;;;;;25.79;15.49;100945.22;84600;1332;23894;-80
2022/04/18 07:13:49;;;;;;;;;;;;;;;25.89;15.03;100936.94;84497;1332;25616;-79
2022/04/18 07:15:54;;;;;;;;;;;;;;;25.80;15.36;100940.81;84588;1332;25441;-81
2022/04/18 07:18:03;;;;;;;;;;;;;;;25.67;14.81;100932.39;84600;1330;23935;-72
2022/04/18 07:20:14;;;;;;;;;;;;;;;25.58;15.37;100930.90;84590;1332;25445;-71
2022/04/18 07:22:23;;;;;;;;;;;;;;;25.93;15.17;100932.13;84599;1327;22589;-91
2022/04/18 07:27:28;;;;;;;;;;;;;;;;;;;;;
2022/04/18 07:29:42;;;;;;;;;;;;;;;26.71;14.17;100925.40;83844;1341;22677;-87
2022/04/18 07:32:05;;;;;;;;;;;;;;;26.84;13.57;100924.15;84138;1338;22624;-86
2022/04/18 07:36:58;;;;;;;;;;;;;;;26.26;13.50;100927.59;84084;1338;22608;-84
2022/04/18 07:39:03;;;;;;;;;;;;;;;26.20;13.91;100926.34;84099;1338;25346;-83
2022/04/18 07:41:15;;;;;;;;;;;;;;;26.32;13.18;100925.70;84217;1332;24240;-83
2022/04/18 07:43:44;;;;;;;;;;;;;;;26.19;13.38;100929.67;84579;1333;25533;-73
2022/04/18 07:46:06;;;;;;;;;;;;;;;25.84;13.25;100919.87;84516;1331;22577;-75
2022/04/18 07:48:25;;;;;;;;;;;;;;;25.71;13.43;100913.20;84604;1328;23111;-79
2022/04/18 07:53:32;;;;;;;;;;;;;;;25.74;13.21;100918.48;84630;1331;22577;-79
2022/04/18 07:58:20;;;;;;;;;;;;;;;24.90;13.19;100909.05;84663;1330;22860;-72
2022/04/18 08:00:48;;;;;;;;;;;;;;;24.49;13.47;100918.32;84620;1330;22577;-72
2022/04/18 08:03:00;;;;;;;;;;;;;;;24.56;13.77;100912.98;84516;1332;22605;-74
2022/04/18 08:07:57;;;;;;;;;;;;;;;25.17;13.39;100904.11;84559;1332;23050;-82
2022/04/18 08:10:05;;;;;;;;;;;;;;;25.42;13.14;100899.85;84608;1329;22589;-83
2022/04/18 08:12:14;;;;;;;;;;;;;;;25.60;12.85;100900.15;84450;1330;23003;-83
2022/04/18 08:14:26;;;;;;;;;;;;;;;25.66;12.63;100902.42;84497;1334;22589;-85
2022/04/18 08:16:34;;;;;;;;;;;;;;;25.75;12.61;100899.86;84567;1331;22571;-80
2022/04/18 08:18:47;;;;;;;;;;;;;;;25.77;12.15;100898.17;84493;1332;24889;-74
2022/04/18 08:20:58;;;;;;;;;;;;;;;25.90;12.63;100900.45;84489;1336;25575;-73
2022/04/18 08:23:06;;;;;;;;;;;;;;;26.03;12.79;100897.42;84612;1330;22604;-80
2022/04/18 08:25:13;;;;;;;;;;;;;;;26.09;12.53;100897.58;84634;1328;24275;-83
2022/04/18 08:27:26;;;;;;;;;;;;;;;26.07;12.59;100890.45;84634;1330;22690;-74
2022/04/18 08:29:43;;;;;;;;;;;;;;;26.28;12.77;100895.56;84557;1333;22575;-72
2022/04/18 08:31:48;;;;;;;;;;;;;;;26.56;11.81;100892.50;84525;1333;22699;-74
2022/04/18 08:33:53;;;;;;;;;;;;;;;26.49;11.83;100892.68;84565;1333;22653;-73
2022/04/18 08:35:59;;;;;;;;;;;;;;;26.28;11.98;100891.37;84614;1329;25491;-73
2022/04/18 08:38:09;;;;;;;;;;;;;;;26.17;11.93;100888.41;84635;1330;22577;-85
2022/04/18 08:40:15;;;;;;;;;;;;;;;25.97;12.21;100888.48;84647;1330;25394;-87
2022/04/18 08:42:29;;;;;;;;;;;;;;;25.90;12.43;100889.86;84596;1330;22593;-72
2022/04/18 08:44:36;;;;;;;;;;;;;;;25.78;12.20;100887.19;84596;1329;22667;-73
2022/04/18 08:46:42;;;;;;;;;;;;;;;25.62;12.19;100881.95;84566;1331;22595;-72
2022/04/18 08:53:57;;;;;;;;;;;;;;;25.44;12.03;100867.87;84612;1330;22702;-86
2022/04/18 08:56:11;;;;;;;;;;;;;;;25.27;12.30;100878.36;84614;1330;25530;-85
2022/04/18 08:58:26;;;;;;;;;;;;;;;25.29;12.70;100872.81;84560;1328;22867;-83
2022/04/18 09:00:34;;;;;;;;;;;;;;;25.61;12.59;100874.67;84511;1332;22651;-81
2022/04/18 09:02:43;;;;;;;;;;;;;;;25.94;12.11;100872.47;84534;1332;25335;-73
2022/04/18 09:04:48;;;;;;;;;;;;;;;25.86;12.19;100868.92;84597;1330;25435;-73
2022/04/18 09:06:53;;;;;;;;;;;;;;;25.74;12.16;100865.59;84576;1334;24005;-82
2022/04/18 09:08:58;;;;;;;;;;;;;;;25.64;12.01;100861.15;84646;1329;25470;-83
2022/04/18 09:11:03;;;;;;;;;;;;;;;25.63;11.86;100852.33;84653;1332;24030;-85
2022/04/18 09:13:08;;;;;;;;;;;;;;;25.60;11.90;100852.58;84699;1327;22635;-84
2022/04/18 09:15:29;;;;;;;;;;;;;;;24.98;11.94;100847.42;84648;1330;25446;-82
2022/04/18 09:17:34;;;;;;;;;;;;;;;24.64;12.23;100845.33;84490;1330;22762;-87
2022/04/18 09:19:39;;;;;;;;;;;;;;;24.54;12.67;100839.05;84646;1329;25322;-85
2022/04/18 09:21:56;;;;;;;;;;;;;;;24.57;12.85;100837.71;84639;1329;23965;-73
2022/04/18 09:27:06;;;;;;;;;;;;;;;24.72;12.56;100837.10;84588;1332;22599;-81
2022/04/18 09:29:21;;;;;;;;;;;;;;;24.42;12.78;100828.89;84627;1329;22574;-71
2022/04/18 09:31:43;;;;;;;;;;;;;;;23.95;12.77;100826.29;84621;1329;24271;-81
2022/04/18 09:33:58;;;;;;;;;;;;;;;23.54;13.15;100822.81;84626;1330;25539;-73
2022/04/18 09:36:34;;;;;;;;;;;;;;;23.16;13.74;100827.85;84639;1329;22674;-74
2022/04/18 09:52:44;;;;;;;;;;;;;;;19.64;16.00;100800.44;84531;1332;24686;-74
2022/04/18 09:55:03;;;;;;;;;;;;;;;19.18;16.51;100794.70;84475;1334;22739;-82
2022/04/18 09:57:45;;;;;;;;;;;;;;;18.92;16.73;100795.73;84681;1329;22632;-80
2022/04/18 10:00:28;;;;;;;;;;;;;;;18.64;16.85;100794.70;84626;1330;24191;-81
2022/04/18 10:02:40;;;;;;;;;;;;;;;18.43;17.43;100790.41;84676;1325;22571;-81
2022/04/18 10:08:03;;;;;;;;;;;;;;;17.62;17.10;100783.81;84570;1334;23949;-82
2022/04/18 10:11:04;;;;;;;;;;;;;;;;;;;;;
2022/04/18 10:13:52;;;;;;;;;;;;;;;17.44;17.53;100779.92;84634;1325;24298;-81
2022/04/18 10:15:58;;;;;;;;;;;;;;;17.17;17.43;100780.48;84607;1330;22838;-81
2022/04/18 10:18:07;;;;;;;;;;;;;;;16.73;17.49;100774.39;84581;1330;22573;-72
2022/04/18 10:20:20;;;;;;;;;;;;;;;16.40;17.94;100772.39;84572;1332;22592;-73
2022/04/18 10:22:38;;;;;;;;;;;;;;;16.29;18.32;100771.58;84631;1329;25920;-81
2022/04/18 10:25:03;;;;;;;;;;;;;;;16.06;18.51;100762.48;84566;1329;22589;-81
2022/04/18 10:27:46;;;;;;;;;;;;;;;15.96;19.12;100764.39;84530;1332;23894;-79
2022/04/18 10:29:53;;;;;;;;;;;;;;;16.02;19.24;100757.73;84573;1332;22691;-81
2022/04/18 10:32:03;;;;;;;;;;;;;;;16.10;19.10;100755.05;84581;1330;25303;-81
2022/04/18 10:34:13;;;;;;;;;;;;;;;16.04;18.92;100753.59;84542;1331;22784;-72
2022/04/18 10:36:26;;;;;;;;;;;;;;;15.81;19.20;100747.98;84434;1336;22605;-73
2022/04/18 10:38:33;;;;;;;;;;;;;;;15.49;19.02;100751.26;84569;1332;24890;-91
2022/04/18 10:40:42;;;;;;;;;;;;;;;15.19;18.97;100753.30;84558;1333;24193;-79
2022/04/18 10:42:54;;;;;;;;;;;;;;;15.00;18.99;100749.70;84566;1332;24422;-80
2022/04/18 10:45:10;;;;;;;;;;;;;;;14.98;19.57;100747.55;84580;1333;22587;-81
2022/04/18 10:47:18;;;;;;;;;;;;;;;15.01;19.65;100744.91;84570;1330;22574;-80
2022/04/18 10:49:23;;;;;;;;;;;;;;;15.07;20.02;100738.11;84513;1331;22578;-81
2022/04/18 10:51:34;;;;;;;;;;;;;;;15.08;19.71;100741.91;84573;1332;22700;-85
2022/04/18 10:53:39;;;;;;;;;;;;;;;14.85;19.61;100748.50;84573;1332;22580;-84
2022/04/18 10:56:11;;;;;;;;;;;;;;;14.53;19.78;100744.27;84580;1331;22579;-82
2022/04/18 10:58:17;;;;;;;;;;;;;;;14.34;20.39;100748.66;84601;1333;24269;-80
2022/04/18 11:00:23;;;;;;;;;;;;;;;14.29;20.02;100743.66;84555;1331;25507;-79
2022/04/18 11:02:39;;;;;;;;;;;;;;;14.28;20.07;100736.51;84595;1331;23890;-73
2022/04/18 11:04:47;;;;;;;;;;;;;;;14.30;20.09;100731.14;84587;1332;24242;-73
2022/04/18 11:07:00;;;;;;;;;;;;;;;14.32;20.37;100732.46;84614;1332;22571;-80
2022/04/18 11:09:07;;;;;;;;;;;;;;;14.41;20.71;100720.10;84577;1327;22670;-74
2022/04/18 11:11:18;;;;;;;;;;;;;;;14.44;20.58;100722.56;84581;1327;22693;-72
2022/04/18 11:13:27;;;;;;;;;;;;;;;14.50;20.97;100726.92;84542;1331;26622;-87
2022/04/18 11:15:34;;;;;;;;;;;;;;;14.51;20.60;100731.26;84507;1330;22909;-82
2022/04/18 11:17:40;;;;;;;;;;;;;;;14.46;20.50;100724.42;84630;1327;22574;-84
2022/04/18 11:19:46;;;;;;;;;;;;;;;14.40;20.51;100724.69;84611;1332;25959;-83
2022/04/18 11:22:24;;;;;;;;;;;;;;;14.23;20.44;100720.58;84547;1332;22607;-85
2022/04/18 11:24:38;;;;;;;;;;;;;;;14.12;21.58;100714.98;84481;1335;22651;-82
2022/04/18 11:26:43;;;;;;;;;;;;;;;14.09;21.35;100713.73;84565;1327;22643;-74
2022/04/18 11:28:49;;;;;;;;;;;;;;;13.98;21.06;100713.73;84509;1331;22598;-73
2022/04/18 11:30:54;;;;;;;;;;;;;;;13.87;21.15;100715.98;84596;1332;22640;-72
2022/04/18 11:32:59;;;;;;;;;;;;;;;13.76;21.03;100715.81;84554;1333;22610;-82
2022/04/18 11:35:09;;;;;;;;;;;;;;;13.54;21.70;100713.95;84571;1335;22639;-81
2022/04/18 11:37:22;;;;;;;;;;;;;;;13.44;21.99;100707.77;84530;1331;25414;-82
2022/04/18 11:39:45;;;;;;;;;;;;;;;13.47;22.63;100691.51;84578;1330;22590;-81
2022/04/18 11:42:05;;;;;;;;;;;;;;;13.52;22.43;100686.73;84556;1332;22706;-81
2022/04/18 11:44:10;;;;;;;;;;;;;;;13.39;22.11;100689.39;84577;1333;22690;-81
2022/04/18 11:46:18;;;;;;;;;;;;;;;13.28;22.00;100688.14;84551;1334;22577;-80
2022/04/18 11:48:25;;;;;;;;;;;;;;;13.09;21.54;100686.30;84608;1331;22570;-81
2022/04/18 11:50:36;;;;;;;;;;;;;;;12.94;21.86;100680.33;84566;1332;22705;-81
2022/04/18 11:52:44;;;;;;;;;;;;;;;12.85;21.76;100675.27;84561;1331;25506;-72
2022/04/18 11:55:03;;;;;;;;;;;;;;;12.79;22.13;100670.95;84570;1327;22860;-72
2022/04/18 11:57:07;;;;;;;;;;;;;;;12.78;22.50;100659.47;84538;1332;24280;-72
2022/04/18 11:59:13;;;;;;;;;;;;;;;12.78;22.16;100666.30;84564;1333;22603;-74
2022/04/18 12:08:39;;;;;;;;;;;;;;;12.44;23.34;100648.83;84285;1337;23069;-76
2022/04/18 12:10:45;;;;;;;;;;;;;;;12.40;23.40;100639.16;84358;1335;26582;-77
2022/04/18 12:12:54;;;;;;;;;;;;;;;12.39;23.19;100638.00;84433;1333;22596;-74
2022/04/18 12:15:02;;;;;;;;;;;;;;;12.38;23.39;100630.51;84531;1332;25440;-75
2022/04/18 12:17:09;;;;;;;;;;;;;;;12.41;23.27;100631.62;84537;1332;22578;-77
2022/04/18 12:19:15;;;;;;;;;;;;;;;12.41;22.74;100623.90;84570;1332;22592;-77
2022/04/18 12:21:20;;;;;;;;;;;;;;;12.39;22.83;100620.30;84566;1330;25430;-78
2022/04/18 12:23:25;;;;;;;;;;;;;;;12.38;23.56;100617.55;84571;1333;22737;-74
2022/04/18 12:25:31;;;;;;;;;;;;;;;12.35;23.52;100612.60;84568;1332;25373;-74
2022/04/18 12:27:39;;;;;;;;;;;;;;;12.31;23.49;100607.70;84569;1331;25337;-74
2022/04/18 12:29:46;;;;;;;;;;;;;;;12.27;23.60;100595.11;84568;1334;24023;-74
2022/04/18 12:31:59;;;;;;;;;;;;;;;12.24;23.71;100579.84;84565;1327;22620;-77
2022/04/18 12:34:04;;;;;;;;;;;;;;;12.22;23.32;100591.66;84518;1332;22650;-77
2022/04/18 12:36:08;;;;;;;;;;;;;;;12.21;23.03;100585.73;84591;1334;22574;-78
2022/04/18 12:38:13;;;;;;;;;;;;;;;12.15;22.74;100580.39;84526;1328;22865;-75
2022/04/18 12:40:18;;;;;;;;;;;;;;;12.11;23.44;100578.77;84537;1332;22581;-75
2022/04/18 12:42:27;;;;;;;;;;;;;;;12.09;22.85;100579.77;84569;1332;22683;-74
2022/04/18 12:44:32;;;;;;;;;;;;;;;12.03;23.25;100575.64;84567;1329;23926;-74
2022/04/18 12:46:37;;;;;;;;;;;;;;;12.00;23.69;100560.70;84573;1332;23296;-77
2022/04/18 12:48:41;;;;;;;;;;;;;;;11.96;23.01;100559.85;84535;1331;24418;-78
2022/04/18 12:50:50;;;;;;;;;;;;;;;11.88;23.51;100559.28;84529;1333;22600;-77
2022/04/18 12:52:57;;;;;;;;;;;;;;;11.84;23.43;100562.91;84578;1332;24280;-77
2022/04/18 12:55:09;;;;;;;;;;;;;;;11.83;23.29;100548.81;84526;1333;22605;-77
2022/04/18 12:57:39;;;;;;;;;;;;;;;11.84;23.38;100541.60;84637;1333;22592;-74
2022/04/18 12:59:45;;;;;;;;;;;;;;;11.81;22.96;100540.84;84602;1332;22592;-79
2022/04/18 13:01:50;;;;;;;;;;;;;;;11.78;23.09;100533.08;84585;1333;24250;-74